createdAt,value
2017-01-12T00:00:10.379Z,7.16
2017-01-12T00:01:11.363Z,7.12
2017-01-12T00:02:11.017Z,7.21
2017-01-12T00:03:11.126Z,7.08
2017-01-12T00:04:11.336Z,7.08
2017-01-12T00:05:11.415Z,7.04
2017-01-12T00:06:10.979Z,6.96
2017-01-12T00:07:10.769Z,7.09
2017-01-12T00:08:10.689Z,7.11
2017-01-12T00:09:10.962Z,7.09
2017-01-12T00:10:11.490Z,7.04
2017-01-12T00:11:10.610Z,7.01
2017-01-12T00:12:11.088Z,7.08
2017-01-12T00:13:10.149Z,7.04
2017-01-12T00:14:11.545Z,7.05
2017-01-12T00:15:11.396Z,7.01
2017-01-12T00:16:10.401Z,7.12
2017-01-12T00:17:10.496Z,7.05
2017-01-12T00:18:10.628Z,7.05
2017-01-12T00:19:10.765Z,7.06
2017-01-12T00:20:10.395Z,7.05
2017-01-12T00:21:10.666Z,7.08
2017-01-12T00:22:10.524Z,7.11
2017-01-12T00:23:10.662Z,7.12
2017-01-12T00:24:10.968Z,7.08
2017-01-12T00:25:10.400Z,7.14
2017-01-12T00:26:10.980Z,7.05
2017-01-12T00:27:11.238Z,7.08
2017-01-12T00:28:11.198Z,7.12
2017-01-12T00:29:10.261Z,7.21
2017-01-12T00:30:10.078Z,7.14
2017-01-12T00:31:10.777Z,7.12
2017-01-12T00:32:10.358Z,7.14
2017-01-12T00:33:10.519Z,7.16
2017-01-12T00:34:10.725Z,7.11
2017-01-12T00:35:10.375Z,7.09
2017-01-12T00:36:10.357Z,7.2
2017-01-12T00:37:10.655Z,7.2
2017-01-12T00:38:10.291Z,7.17
2017-01-12T00:39:10.821Z,7.11
2017-01-12T00:40:10.910Z,7.11
2017-01-12T00:41:10.126Z,7.16
2017-01-12T00:42:10.523Z,7.17
2017-01-12T00:43:10.180Z,7.19
2017-01-12T00:44:10.545Z,7.11
2017-01-12T00:45:10.183Z,7.09
2017-01-12T00:46:10.125Z,7.2
2017-01-12T00:47:10.086Z,7.16
2017-01-12T00:48:10.079Z,7.11
2017-01-12T00:49:10.064Z,7.08
2017-01-12T00:50:10.669Z,7.08
2017-01-12T00:51:10.325Z,7.09
2017-01-12T00:52:10.653Z,7.06
2017-01-12T00:53:10.619Z,7.04
2017-01-12T00:54:09.832Z,7.09
2017-01-12T00:55:09.701Z,7.08
2017-01-12T00:56:09.888Z,7.04
2017-01-12T00:57:10.170Z,7.06
2017-01-12T00:58:10.489Z,7.09
2017-01-12T00:59:09.524Z,7.04
2017-01-12T01:00:09.715Z,7.05
2017-01-12T01:01:09.764Z,7.02
2017-01-12T01:02:10.266Z,6.87
2017-01-12T01:03:10.367Z,6.8
2017-01-12T01:04:09.692Z,6.83
2017-01-12T01:05:10.334Z,6.88
2017-01-12T01:06:09.646Z,6.83
2017-01-12T01:07:08.937Z,6.8
2017-01-12T01:08:09.491Z,6.75
2017-01-12T01:09:10.243Z,6.77
2017-01-12T01:10:09.538Z,6.83
2017-01-12T01:11:09.437Z,6.86
2017-01-12T01:12:09.481Z,6.8
2017-01-12T01:13:09.821Z,6.84
2017-01-12T01:14:10.021Z,6.77
2017-01-12T01:15:09.094Z,6.8
2017-01-12T01:16:09.149Z,6.77
2017-01-12T01:17:08.661Z,6.78
2017-01-12T01:18:09.233Z,6.77
2017-01-12T01:19:08.703Z,6.91
2017-01-12T01:20:09.179Z,6.87
2017-01-12T01:21:09.310Z,6.83
2017-01-12T01:22:09.936Z,6.9
2017-01-12T01:23:09.246Z,6.8
2017-01-12T01:24:09.151Z,6.77
2017-01-12T01:25:09.201Z,6.78
2017-01-12T01:26:09.849Z,6.75
2017-01-12T01:27:08.744Z,6.65
2017-01-12T01:28:08.808Z,6.75
2017-01-12T01:29:08.937Z,6.69
2017-01-12T01:30:09.408Z,6.69
2017-01-12T01:31:09.697Z,6.63
2017-01-12T01:32:08.608Z,6.6
2017-01-12T01:33:09.019Z,6.59
2017-01-12T01:34:08.660Z,6.54
2017-01-12T01:35:09.238Z,6.65
2017-01-12T01:36:09.443Z,6.63
2017-01-12T01:37:09.436Z,6.63
2017-01-12T01:38:09.427Z,6.59
2017-01-12T01:39:09.396Z,6.7
2017-01-12T01:40:08.517Z,6.8
2017-01-12T01:41:08.086Z,6.72
2017-01-12T01:42:09.455Z,6.8
2017-01-12T01:43:09.080Z,6.77
2017-01-12T01:44:08.726Z,6.87
2017-01-12T01:45:08.384Z,6.83
2017-01-12T01:46:08.690Z,6.77
2017-01-12T01:47:07.853Z,6.68
2017-01-12T01:48:08.656Z,6.75
2017-01-12T01:49:08.552Z,6.75
2017-01-12T01:50:08.929Z,6.7
2017-01-12T01:51:09.097Z,6.66
2017-01-12T01:52:08.291Z,6.69
2017-01-12T01:53:08.391Z,6.63
2017-01-12T01:54:07.786Z,6.55
2017-01-12T01:55:09.166Z,6.72
2017-01-12T01:56:09.135Z,6.69
2017-01-12T01:57:08.448Z,6.62
2017-01-12T01:58:07.785Z,6.66
2017-01-12T01:59:09.044Z,6.7
2017-01-12T02:00:08.374Z,6.66
2017-01-12T02:01:08.658Z,6.57
2017-01-12T02:02:08.347Z,6.63
2017-01-12T02:03:08.297Z,6.69
2017-01-12T02:04:08.292Z,6.66
2017-01-12T02:05:07.436Z,6.6
2017-01-12T02:06:08.243Z,6.69
2017-01-12T02:07:07.480Z,6.72
2017-01-12T02:08:08.194Z,6.69
2017-01-12T02:09:08.015Z,6.73
2017-01-12T02:10:08.105Z,6.72
2017-01-12T02:11:08.032Z,6.72
2017-01-12T02:12:08.793Z,6.72
2017-01-12T02:13:07.645Z,6.73
2017-01-12T02:14:07.400Z,6.66
2017-01-12T02:15:07.666Z,6.72
2017-01-12T02:16:07.911Z,6.62
2017-01-12T02:17:08.659Z,6.59
2017-01-12T02:18:07.798Z,6.47
2017-01-12T02:19:08.084Z,6.47
2017-01-12T02:20:08.609Z,6.52
2017-01-12T02:21:08.059Z,6.5
2017-01-12T02:22:07.208Z,6.44
2017-01-12T02:23:07.581Z,6.26
2017-01-12T02:24:08.120Z,6.37
2017-01-12T02:25:07.444Z,6.45
2017-01-12T02:26:08.411Z,6.44
2017-01-12T02:27:07.400Z,6.36
2017-01-12T02:28:07.710Z,6.45
2017-01-12T02:29:08.001Z,6.44
2017-01-12T02:30:07.322Z,6.35
2017-01-12T02:31:08.279Z,6.48
2017-01-12T02:32:07.604Z,6.44
2017-01-12T02:33:06.933Z,6.41
2017-01-12T02:34:06.887Z,6.43
2017-01-12T02:35:07.159Z,6.32
2017-01-12T02:36:08.192Z,6.41
2017-01-12T02:37:08.131Z,6.35
2017-01-12T02:38:07.470Z,6.33
2017-01-12T02:39:07.447Z,6.37
2017-01-12T02:40:07.732Z,6.36
2017-01-12T02:41:07.387Z,6.45
2017-01-12T02:42:07.708Z,6.4
2017-01-12T02:43:07.995Z,6.36
2017-01-12T02:44:07.375Z,6.41
2017-01-12T02:45:07.317Z,6.29
2017-01-12T02:46:06.648Z,6.26
2017-01-12T02:47:07.245Z,6.4
2017-01-12T02:48:07.532Z,6.43
2017-01-12T02:49:07.215Z,6.41
2017-01-12T02:50:06.763Z,6.27
2017-01-12T02:51:07.490Z,6.43
2017-01-12T02:52:06.415Z,6.27
2017-01-12T02:53:07.128Z,6.3
2017-01-12T02:54:06.738Z,6.29
2017-01-12T02:55:07.106Z,6.27
2017-01-12T02:56:07.362Z,6.35
2017-01-12T02:57:07.337Z,6.3
2017-01-12T02:58:07.305Z,6.26
2017-01-12T02:59:06.980Z,6.29
2017-01-12T03:00:06.988Z,6.22
2017-01-12T03:01:06.500Z,6.29
2017-01-12T03:02:07.527Z,6.22
2017-01-12T03:03:06.769Z,6.37
2017-01-12T03:04:07.175Z,6.32
2017-01-12T03:05:07.488Z,6.27
2017-01-12T03:06:07.427Z,6.26
2017-01-12T03:07:07.099Z,6.26
2017-01-12T03:08:06.755Z,6.36
2017-01-12T03:09:07.405Z,6.43
2017-01-12T03:10:07.030Z,6.4
2017-01-12T03:11:06.350Z,6.37
2017-01-12T03:12:06.565Z,6.37
2017-01-12T03:13:05.803Z,6.35
2017-01-12T03:14:05.870Z,6.32
2017-01-12T03:15:06.942Z,6.3
2017-01-12T03:16:06.142Z,6.37
2017-01-12T03:17:06.109Z,6.33
2017-01-12T03:18:06.821Z,6.32
2017-01-12T03:19:06.161Z,6.33
2017-01-12T03:20:07.091Z,6.27
2017-01-12T03:21:06.440Z,6.18
2017-01-12T03:22:06.928Z,6.32
2017-01-12T03:23:06.065Z,6.11
2017-01-12T03:24:06.714Z,6.14
2017-01-12T03:25:06.528Z,6.26
2017-01-12T03:26:06.258Z,6.25
2017-01-12T03:27:06.322Z,6.32
2017-01-12T03:28:06.256Z,6.26
2017-01-12T03:29:06.283Z,6.41
2017-01-12T03:30:06.215Z,6.25
2017-01-12T03:31:06.184Z,6.29
2017-01-12T03:32:06.836Z,6.14
2017-01-12T03:33:06.067Z,6.14
2017-01-12T03:34:06.034Z,6.14
2017-01-12T03:35:06.762Z,6.21
2017-01-12T03:36:06.112Z,6.25
2017-01-12T03:37:05.325Z,6.26
2017-01-12T03:38:05.701Z,6.27
2017-01-12T03:39:06.027Z,6.22
2017-01-12T03:40:05.890Z,6.11
2017-01-12T03:41:05.623Z,6.11
2017-01-12T03:42:05.825Z,6.08
2017-01-12T03:43:05.975Z,6.17
2017-01-12T03:44:06.574Z,6.1
2017-01-12T03:45:05.877Z,6.11
2017-01-12T03:46:05.826Z,6.1
2017-01-12T03:47:06.141Z,6.03
2017-01-12T03:48:05.785Z,6.06
2017-01-12T03:49:06.114Z,6.07
2017-01-12T03:50:06.395Z,6.06
2017-01-12T03:51:05.694Z,6.11
2017-01-12T03:52:05.687Z,6.04
2017-01-12T03:53:05.990Z,6.07
2017-01-12T03:54:05.644Z,6
2017-01-12T03:55:05.283Z,6.07
2017-01-12T03:56:05.508Z,6.13
2017-01-12T03:57:05.362Z,6.21
2017-01-12T03:58:05.548Z,6.21
2017-01-12T03:59:05.183Z,6.11
2017-01-12T04:00:05.533Z,6.13
2017-01-12T04:01:06.120Z,6.22
2017-01-12T04:02:05.309Z,6.29
2017-01-12T04:03:05.414Z,6.26
2017-01-12T04:04:05.404Z,6.29
2017-01-12T04:05:04.957Z,6.27
2017-01-12T04:06:05.007Z,6.25
2017-01-12T04:07:05.267Z,6.26
2017-01-12T04:08:05.226Z,6.22
2017-01-12T04:09:05.613Z,6.35
2017-01-12T04:10:05.260Z,6.25
2017-01-12T04:11:05.296Z,6.29
2017-01-12T04:12:05.204Z,6.25
2017-01-12T04:13:05.363Z,6.22
2017-01-12T04:14:05.185Z,6.35
2017-01-12T04:15:05.462Z,6.29
2017-01-12T04:16:05.637Z,6.32
2017-01-12T04:17:04.882Z,6.32
2017-01-12T04:18:05.392Z,6.22
2017-01-12T04:19:04.699Z,6.3
2017-01-12T04:20:04.683Z,6.25
2017-01-12T04:21:04.644Z,6.41
2017-01-12T04:22:04.170Z,6.32
2017-01-12T04:23:04.605Z,6.29
2017-01-12T04:24:05.576Z,6.37
2017-01-12T04:25:04.908Z,6.36
2017-01-12T04:26:05.183Z,6.3
2017-01-12T04:27:05.167Z,6.3
2017-01-12T04:28:04.408Z,6.32
2017-01-12T04:29:05.454Z,6.32
2017-01-12T04:30:04.766Z,6.43
2017-01-12T04:31:05.074Z,6.27
2017-01-12T04:32:04.727Z,6.26
2017-01-12T04:33:04.684Z,6.25
2017-01-12T04:34:04.985Z,6.25
2017-01-12T04:35:04.683Z,6.32
2017-01-12T04:36:04.558Z,6.37
2017-01-12T04:37:04.590Z,6.18
2017-01-12T04:38:05.249Z,6.22
2017-01-12T04:39:03.832Z,6.3
2017-01-12T04:40:03.871Z,6.27
2017-01-12T04:41:04.827Z,6.32
2017-01-12T04:42:04.467Z,6.33
2017-01-12T04:43:03.650Z,6.4
2017-01-12T04:44:04.443Z,6.22
2017-01-12T04:45:04.918Z,6.27
2017-01-12T04:46:04.303Z,6.33
2017-01-12T04:47:04.372Z,6.27
2017-01-12T04:48:04.996Z,6.33
2017-01-12T04:49:04.256Z,6.32
2017-01-12T04:50:04.012Z,6.33
2017-01-12T04:51:03.925Z,6.26
2017-01-12T04:52:04.774Z,6.32
2017-01-12T04:53:04.849Z,6.33
2017-01-12T04:54:03.774Z,6.27
2017-01-12T04:55:03.932Z,6.4
2017-01-12T04:56:04.139Z,6.35
2017-01-12T04:57:04.118Z,6.33
2017-01-12T04:58:04.407Z,6.32
2017-01-12T04:59:03.730Z,6.37
2017-01-12T05:00:04.095Z,6.45
2017-01-12T05:01:04.527Z,6.36
2017-01-12T05:02:04.663Z,6.37
2017-01-12T05:03:03.242Z,6.32
2017-01-12T05:04:04.582Z,6.35
2017-01-12T05:05:03.605Z,6.29
2017-01-12T05:06:03.820Z,6.32
2017-01-12T05:07:04.205Z,6.29
2017-01-12T05:08:04.360Z,6.4
2017-01-12T05:09:03.195Z,6.35
2017-01-12T05:10:03.813Z,6.4
2017-01-12T05:11:03.783Z,6.36
2017-01-12T05:12:04.080Z,6.36
2017-01-12T05:13:03.914Z,6.26
2017-01-12T05:14:03.729Z,6.35
2017-01-12T05:15:04.002Z,6.27
2017-01-12T05:16:04.182Z,6.37
2017-01-12T05:17:03.620Z,6.36
2017-01-12T05:18:03.927Z,6.33
2017-01-12T05:19:03.565Z,6.35
2017-01-12T05:20:03.543Z,6.22
2017-01-12T05:21:04.187Z,6.26
2017-01-12T05:22:03.541Z,6.27
2017-01-12T05:23:03.352Z,6.36
2017-01-12T05:24:03.547Z,6.29
2017-01-12T05:25:03.030Z,6.35
2017-01-12T05:26:03.410Z,6.3
2017-01-12T05:27:03.711Z,6.25
2017-01-12T05:28:03.023Z,6.29
2017-01-12T05:29:03.012Z,6.33
2017-01-12T05:30:03.321Z,6.33
2017-01-12T05:31:03.619Z,6.35
2017-01-12T05:32:02.617Z,6.45
2017-01-12T05:33:02.902Z,6.44
2017-01-12T05:34:03.550Z,6.4
2017-01-12T05:35:03.368Z,6.37
2017-01-12T05:36:03.084Z,6.44
2017-01-12T05:37:03.143Z,6.41
2017-01-12T05:38:02.379Z,6.41
2017-01-12T05:39:03.018Z,6.37
2017-01-12T05:40:03.736Z,6.32
2017-01-12T05:41:03.377Z,6.37
2017-01-12T05:42:03.067Z,6.37
2017-01-12T05:43:03.427Z,6.27
2017-01-12T05:44:02.643Z,6.3
2017-01-12T05:45:02.956Z,6.41
2017-01-12T05:46:03.466Z,6.43
2017-01-12T05:47:02.913Z,6.27
2017-01-12T05:48:02.469Z,6.41
2017-01-12T05:49:03.525Z,6.29
2017-01-12T05:50:02.824Z,6.25
2017-01-12T05:51:03.142Z,6.32
2017-01-12T05:52:02.703Z,6.22
2017-01-12T05:53:03.432Z,6.26
2017-01-12T05:54:02.320Z,6.11
2017-01-12T05:55:02.371Z,6.21
2017-01-12T05:56:03.020Z,6.25
2017-01-12T05:57:03.162Z,6.29
2017-01-12T05:58:03.169Z,6.27
2017-01-12T05:59:02.797Z,6.33
2017-01-12T06:00:02.775Z,6.4
2017-01-12T06:01:03.220Z,6.4
2017-01-12T06:02:02.542Z,6.41
2017-01-12T06:03:01.857Z,6.4
2017-01-12T06:04:02.500Z,6.37
2017-01-12T06:05:02.457Z,6.4
2017-01-12T06:06:02.759Z,6.37
2017-01-12T06:07:03.089Z,6.33
2017-01-12T06:08:02.052Z,6.41
2017-01-12T06:09:02.043Z,6.43
2017-01-12T06:10:03.004Z,6.43
2017-01-12T06:11:01.979Z,6.45
2017-01-12T06:12:02.492Z,6.48
2017-01-12T06:13:02.450Z,6.48
2017-01-12T06:14:02.234Z,6.47
2017-01-12T06:15:01.563Z,6.43
2017-01-12T06:16:02.204Z,6.43
2017-01-12T06:17:01.841Z,6.43
2017-01-12T06:18:02.463Z,6.43
2017-01-12T06:19:01.807Z,6.45
2017-01-12T06:20:02.122Z,6.37
2017-01-12T06:21:02.099Z,6.33
2017-01-12T06:22:01.332Z,6.37
2017-01-12T06:23:01.395Z,6.26
2017-01-12T06:24:02.355Z,6.35
2017-01-12T06:25:02.342Z,6.47
2017-01-12T06:26:01.973Z,6.48
2017-01-12T06:27:01.932Z,6.47
2017-01-12T06:28:01.909Z,6.43
2017-01-12T06:29:01.603Z,6.3
2017-01-12T06:30:02.311Z,6.41
2017-01-12T06:31:02.521Z,6.17
2017-01-12T06:32:01.167Z,6.16
2017-01-12T06:33:01.444Z,6.1
2017-01-12T06:34:02.428Z,6.16
2017-01-12T06:35:01.118Z,6.25
2017-01-12T06:36:02.367Z,6.1
2017-01-12T06:37:00.958Z,6.13
2017-01-12T06:38:01.010Z,6.14
2017-01-12T06:39:02.350Z,6.07
2017-01-12T06:40:02.304Z,6.11
2017-01-12T06:41:01.914Z,6.17
2017-01-12T06:42:01.585Z,6.21
2017-01-12T06:43:01.882Z,6.17
2017-01-12T06:44:02.164Z,6.22
2017-01-12T06:45:01.832Z,6.32
2017-01-12T06:46:01.661Z,6.3
2017-01-12T06:47:01.230Z,6.17
2017-01-12T06:48:01.340Z,6.25
2017-01-12T06:49:00.748Z,6.27
2017-01-12T06:50:02.058Z,6.27
2017-01-12T06:51:00.932Z,6.26
2017-01-12T06:52:01.200Z,6.04
2017-01-12T06:53:01.487Z,6
2017-01-12T06:54:01.266Z,5.98
2017-01-12T06:55:01.917Z,6.04
2017-01-12T06:56:01.764Z,5.98
2017-01-12T06:57:01.529Z,5.96
2017-01-12T06:58:01.182Z,6.06
2017-01-12T06:59:00.828Z,6.07
2017-01-12T07:00:01.532Z,6.08
2017-01-12T07:01:01.015Z,6.08
2017-01-12T07:02:01.091Z,6.1
2017-01-12T07:03:01.729Z,6
2017-01-12T07:04:00.613Z,6
2017-01-12T07:05:00.379Z,5.95
2017-01-12T07:06:00.999Z,6.07
2017-01-12T07:07:00.305Z,6.14
2017-01-12T07:08:01.302Z,6.07
2017-01-12T07:09:00.259Z,6
2017-01-12T07:10:00.564Z,5.98
2017-01-12T07:11:00.203Z,6.11
2017-01-12T07:12:00.847Z,6.13
2017-01-12T07:13:00.501Z,6.04
2017-01-12T07:14:01.431Z,6.04
2017-01-12T07:15:01.442Z,6.14
2017-01-12T07:16:00.738Z,6.11
2017-01-12T07:16:59.994Z,6.11
2017-01-12T07:18:01.080Z,6.04
2017-01-12T07:19:01.344Z,6.11
2017-01-12T07:20:01.308Z,6.03
2017-01-12T07:21:01.299Z,6.06
2017-01-12T07:22:00.638Z,6.13
2017-01-12T07:23:00.169Z,6.08
2017-01-12T07:24:00.563Z,6.08
2017-01-12T07:25:00.443Z,6.07
2017-01-12T07:26:00.159Z,6.06
2017-01-12T07:27:00.263Z,6.1
2017-01-12T07:28:00.619Z,6.07
2017-01-12T07:29:00.331Z,6.1
2017-01-12T07:30:00.333Z,6.14
2017-01-12T07:31:01.038Z,6.13
2017-01-12T07:32:01.053Z,6.04
2017-01-12T07:32:59.988Z,6.07
2017-01-12T07:34:00.963Z,6.1
2017-01-12T07:35:00.282Z,6.07
2017-01-12T07:36:00.253Z,6.04
2017-01-12T07:37:00.421Z,5.98
2017-01-12T07:38:00.200Z,5.98
2017-01-12T07:38:59.773Z,6
2017-01-12T07:40:00.089Z,5.92
2017-01-12T07:41:00.448Z,5.93
2017-01-12T07:41:59.376Z,5.93
2017-01-12T07:42:59.794Z,6.04
2017-01-12T07:44:00.372Z,5.98
2017-01-12T07:45:00.667Z,5.95
2017-01-12T07:46:00.036Z,5.95
2017-01-12T07:46:59.662Z,6.06
2017-01-12T07:48:00.475Z,6.03
2017-01-12T07:49:00.135Z,6.04
2017-01-12T07:49:59.826Z,6.11
2017-01-12T07:51:00.396Z,6.07
2017-01-12T07:51:59.526Z,6.06
2017-01-12T07:53:00.495Z,5.95
2017-01-12T07:53:59.819Z,6.06
2017-01-12T07:54:59.052Z,6.13
2017-01-12T07:56:00.391Z,6.14
2017-01-12T07:57:00.433Z,6.1
2017-01-12T07:57:59.711Z,6.14
2017-01-12T07:58:59.366Z,6.1
2017-01-12T07:59:58.927Z,6.07
2017-01-12T08:00:59.641Z,6.03
2017-01-12T08:01:59.624Z,6.04
2017-01-12T08:02:59.495Z,6.06
2017-01-12T08:03:58.908Z,6.04
2017-01-12T08:04:59.518Z,6.1
2017-01-12T08:05:59.505Z,6.13
2017-01-12T08:06:59.482Z,6.06
2017-01-12T08:07:59.450Z,6.04
2017-01-12T08:08:59.202Z,6.08
2017-01-12T08:09:59.355Z,6.08
2017-01-12T08:10:59.604Z,6.1
2017-01-12T08:11:58.635Z,6.1
2017-01-12T08:13:00.004Z,6.06
2017-01-12T08:13:59.041Z,6.07
2017-01-12T08:14:59.213Z,6.13
2017-01-12T08:15:59.875Z,6
2017-01-12T08:16:59.943Z,6.04
2017-01-12T08:17:59.725Z,6.16
2017-01-12T08:18:58.470Z,6.11
2017-01-12T08:19:59.739Z,6.06
2017-01-12T08:20:59.046Z,6.03
2017-01-12T08:21:59.638Z,5.95
2017-01-12T08:22:59.750Z,6.04
2017-01-12T08:23:59.083Z,6.1
2017-01-12T08:24:59.046Z,6.13
2017-01-12T08:25:59.655Z,6.07
2017-01-12T08:26:59.680Z,6.17
2017-01-12T08:27:58.984Z,6.07
2017-01-12T08:28:59.470Z,6.22
2017-01-12T08:29:59.009Z,6.1
2017-01-12T08:30:58.894Z,6.16
2017-01-12T08:31:58.884Z,6.14
2017-01-12T08:32:58.820Z,6.08
2017-01-12T08:33:59.466Z,6.07
2017-01-12T08:34:59.332Z,6.04
2017-01-12T08:35:59.492Z,6.1
2017-01-12T08:36:58.115Z,6.16
2017-01-12T08:37:58.930Z,6.16
2017-01-12T08:38:58.724Z,6.32
2017-01-12T08:39:58.708Z,6.36
2017-01-12T08:40:58.989Z,6.29
2017-01-12T08:41:58.088Z,6.27
2017-01-12T08:42:58.461Z,6.18
2017-01-12T08:43:58.278Z,6.3
2017-01-12T08:44:58.563Z,6.37
2017-01-12T08:45:58.453Z,6.3
2017-01-12T08:46:58.517Z,6.27
2017-01-12T08:47:59.186Z,6.41
2017-01-12T08:48:58.470Z,6.33
2017-01-12T08:49:59.139Z,6.43
2017-01-12T08:50:58.415Z,6.5
2017-01-12T08:51:58.495Z,6.48
2017-01-12T08:52:58.364Z,6.51
2017-01-12T08:53:58.368Z,6.55
2017-01-12T08:54:58.160Z,6.37
2017-01-12T08:55:58.177Z,6.59
2017-01-12T08:56:58.310Z,6.63
2017-01-12T08:57:58.206Z,6.78
2017-01-12T08:58:58.600Z,7.19
2017-01-12T08:59:58.339Z,7.14
2017-01-12T09:00:57.545Z,7.45
2017-01-12T09:01:58.347Z,7.21
2017-01-12T09:02:58.698Z,7.48
2017-01-12T09:03:58.788Z,7.48
2017-01-12T09:04:58.513Z,7.44
2017-01-12T09:05:58.773Z,7.41
2017-01-12T09:06:57.916Z,6.99
2017-01-12T09:07:58.053Z,6.8
2017-01-12T09:08:57.706Z,6.65
2017-01-12T09:09:58.663Z,6.59
2017-01-12T09:10:57.237Z,6.66
2017-01-12T09:11:57.976Z,6.51
2017-01-12T09:12:58.118Z,6.75
2017-01-12T09:13:57.983Z,6.62
2017-01-12T09:14:58.600Z,6.99
2017-01-12T09:15:57.922Z,7.21
2017-01-12T09:16:58.153Z,7.59
2017-01-12T09:17:57.781Z,7.88
2017-01-12T09:18:57.530Z,8.25
2017-01-12T09:19:58.431Z,8.33
2017-01-12T09:20:57.079Z,8.83
2017-01-12T09:21:57.109Z,8.62
2017-01-12T09:22:57.714Z,8.93
2017-01-12T09:23:57.696Z,8.16
2017-01-12T09:24:57.001Z,7.93
2017-01-12T09:25:57.537Z,7.42
2017-01-12T09:26:56.972Z,7.24
2017-01-12T09:27:57.634Z,7.26
2017-01-12T09:28:57.275Z,7.39
2017-01-12T09:29:57.888Z,7.42
2017-01-12T09:30:58.254Z,7.48
2017-01-12T09:31:57.093Z,8.01
2017-01-12T09:32:58.174Z,8.37
2017-01-12T09:33:57.398Z,8.59
2017-01-12T09:34:56.714Z,8.47
2017-01-12T09:35:57.499Z,8.77
2017-01-12T09:36:58.091Z,9.22
2017-01-12T09:37:56.985Z,9.17
2017-01-12T09:38:57.926Z,8.88
2017-01-12T09:39:56.700Z,8.7
2017-01-12T09:40:58.020Z,7.96
2017-01-12T09:41:56.909Z,7.88
2017-01-12T09:42:57.867Z,7.97
2017-01-12T09:43:57.919Z,8.36
2017-01-12T09:44:57.244Z,8.69
2017-01-12T09:45:56.914Z,8.37
2017-01-12T09:46:57.218Z,8.39
2017-01-12T09:47:57.288Z,8.12
2017-01-12T09:48:57.081Z,8.11
2017-01-12T09:49:56.947Z,7.97
2017-01-12T09:50:57.794Z,8.34
2017-01-12T09:51:56.799Z,8.85
2017-01-12T09:52:57.133Z,9.22
2017-01-12T09:53:57.415Z,9.53
2017-01-12T09:54:57.722Z,10.16
2017-01-12T09:55:57.093Z,9.7
2017-01-12T09:56:57.465Z,9.65
2017-01-12T09:57:57.909Z,9.86
2017-01-12T09:58:57.000Z,10.04
2017-01-12T09:59:57.623Z,10.19
2017-01-12T10:00:56.855Z,10.08
2017-01-12T10:01:57.009Z,10.04
2017-01-12T10:02:56.345Z,9.75
2017-01-12T10:03:56.905Z,9.38
2017-01-12T10:04:56.897Z,9.29
2017-01-12T10:05:57.611Z,9.06
2017-01-12T10:06:57.186Z,9.11
2017-01-12T10:07:56.774Z,8.83
2017-01-12T10:08:56.468Z,8.45
2017-01-12T10:09:56.895Z,8.47
2017-01-12T10:10:56.785Z,8.5
2017-01-12T10:11:57.230Z,8.67
2017-01-12T10:12:57.414Z,8.91
2017-01-12T10:13:57.363Z,9.06
2017-01-12T10:14:56.969Z,9
2017-01-12T10:15:57.011Z,8.8
2017-01-12T10:16:56.012Z,8.85
2017-01-12T10:17:56.630Z,8.84
2017-01-12T10:18:56.951Z,8.75
2017-01-12T10:19:57.118Z,8.77
2017-01-12T10:20:57.257Z,8.61
2017-01-12T10:21:57.229Z,8.65
2017-01-12T10:22:56.575Z,8
2017-01-12T10:23:57.027Z,7.91
2017-01-12T10:24:56.087Z,8.3
2017-01-12T10:25:55.805Z,8.72
2017-01-12T10:26:56.961Z,8.95
2017-01-12T10:27:55.798Z,8.97
2017-01-12T10:28:57.074Z,9
2017-01-12T10:29:56.064Z,9.14
2017-01-12T10:30:56.563Z,9.28
2017-01-12T10:31:56.682Z,9.13
2017-01-12T10:32:56.992Z,8.93
2017-01-12T10:33:55.922Z,9.05
2017-01-12T10:34:55.578Z,8.95
2017-01-12T10:35:55.969Z,9.29
2017-01-12T10:36:56.127Z,9.28
2017-01-12T10:37:56.263Z,9.13
2017-01-12T10:38:56.225Z,9.1
2017-01-12T10:39:56.225Z,9.05
2017-01-12T10:40:56.203Z,8.93
2017-01-12T10:41:55.876Z,9.29
2017-01-12T10:42:56.793Z,9.45
2017-01-12T10:43:56.465Z,9.34
2017-01-12T10:44:55.810Z,9.29
2017-01-12T10:45:55.799Z,9.29
2017-01-12T10:46:55.925Z,9.24
2017-01-12T10:47:56.694Z,9.22
2017-01-12T10:48:55.892Z,9.09
2017-01-12T10:49:56.342Z,9.1
2017-01-12T10:50:56.360Z,9.56
2017-01-12T10:51:56.641Z,9.79
2017-01-12T10:52:55.548Z,9.98
2017-01-12T10:53:55.931Z,9.72
2017-01-12T10:54:56.421Z,9.7
2017-01-12T10:55:55.889Z,9.6
2017-01-12T10:56:56.571Z,9.87
2017-01-12T10:57:56.522Z,10.28
2017-01-12T10:58:56.501Z,9.87
2017-01-12T10:59:56.317Z,10.18
2017-01-12T11:00:55.982Z,10.77
2017-01-12T11:01:55.950Z,10.28
2017-01-12T11:02:56.430Z,9.98
2017-01-12T11:03:55.745Z,10.43
2017-01-12T11:04:55.732Z,10.85
2017-01-12T11:05:56.035Z,10.48
2017-01-12T11:06:56.186Z,11.05
2017-01-12T11:07:55.023Z,10.99
2017-01-12T11:08:55.602Z,10.71
2017-01-12T11:09:55.956Z,10.07
2017-01-12T11:10:55.499Z,10.82
2017-01-12T11:11:56.271Z,11.05
2017-01-12T11:12:55.473Z,11.42
2017-01-12T11:13:55.511Z,11.51
2017-01-12T11:14:56.220Z,11.43
2017-01-12T11:15:56.058Z,11.06
2017-01-12T11:16:55.535Z,10.77
2017-01-12T11:17:55.823Z,11.03
2017-01-12T11:18:55.491Z,10.3
2017-01-12T11:19:56.136Z,10.72
2017-01-12T11:20:54.811Z,10.4
2017-01-12T11:21:55.960Z,10.26
2017-01-12T11:22:56.080Z,10.4
2017-01-12T11:23:56.059Z,9.56
2017-01-12T11:24:54.669Z,9.53
2017-01-12T11:25:55.433Z,9.61
2017-01-12T11:26:55.517Z,9.45
2017-01-12T11:27:55.376Z,9.82
2017-01-12T11:28:54.976Z,9.52
2017-01-12T11:29:55.614Z,9.83
2017-01-12T11:30:55.606Z,10.22
2017-01-12T11:31:55.603Z,10
2017-01-12T11:32:55.179Z,9.64
2017-01-12T11:33:55.249Z,9.46
2017-01-12T11:34:55.193Z,9.75
2017-01-12T11:35:54.523Z,10.13
2017-01-12T11:36:55.832Z,10.07
2017-01-12T11:37:55.355Z,10.44
2017-01-12T11:38:55.137Z,10.56
2017-01-12T11:39:55.763Z,10.93
2017-01-12T11:40:55.007Z,10.72
2017-01-12T11:41:55.115Z,10.38
2017-01-12T11:42:54.985Z,10.03
2017-01-12T11:43:54.970Z,9.62
2017-01-12T11:44:54.926Z,9.67
2017-01-12T11:45:55.330Z,9.56
2017-01-12T11:46:54.666Z,9.71
2017-01-12T11:47:55.032Z,9.43
2017-01-12T11:48:55.603Z,8.76
2017-01-12T11:49:55.579Z,8.85
2017-01-12T11:50:54.889Z,8.87
2017-01-12T11:51:54.884Z,9.21
2017-01-12T11:52:54.738Z,9.21
2017-01-12T11:53:54.851Z,9.03
2017-01-12T11:54:54.757Z,9.35
2017-01-12T11:55:54.813Z,9.54
2017-01-12T11:56:55.466Z,9.16
2017-01-12T11:57:54.880Z,8.87
2017-01-12T11:58:54.524Z,8.79
2017-01-12T11:59:54.740Z,8.72
2017-01-12T12:00:54.605Z,8.76
2017-01-12T12:01:55.000Z,8.76
2017-01-12T12:02:54.686Z,8.62
2017-01-12T12:03:55.179Z,8.69
2017-01-12T12:04:54.620Z,8.76
2017-01-12T12:05:55.247Z,8.79
2017-01-12T12:06:54.588Z,8.67
2017-01-12T12:07:55.226Z,9.35
2017-01-12T12:08:55.214Z,9.64
2017-01-12T12:09:54.511Z,9.6
2017-01-12T12:10:54.518Z,9.28
2017-01-12T12:11:55.169Z,9.09
2017-01-12T12:12:55.119Z,8.65
2017-01-12T12:13:54.455Z,8.88
2017-01-12T12:14:53.861Z,9.1
2017-01-12T12:15:54.416Z,9.1
2017-01-12T12:16:54.050Z,8.98
2017-01-12T12:17:53.797Z,9
2017-01-12T12:18:54.359Z,8.91
2017-01-12T12:19:54.649Z,8.69
2017-01-12T12:20:54.286Z,8.54
2017-01-12T12:21:54.286Z,8.69
2017-01-12T12:22:54.914Z,8.98
2017-01-12T12:23:54.167Z,9.14
2017-01-12T12:24:54.543Z,9.32
2017-01-12T12:25:54.703Z,9.4
2017-01-12T12:26:54.184Z,9.35
2017-01-12T12:27:54.471Z,9.37
2017-01-12T12:28:54.141Z,9.27
2017-01-12T12:29:53.841Z,9.21
2017-01-12T12:30:54.747Z,9.32
2017-01-12T12:31:54.388Z,9.47
2017-01-12T12:32:54.057Z,9.61
2017-01-12T12:33:54.358Z,9.49
2017-01-12T12:34:53.918Z,9.28
2017-01-12T12:35:54.001Z,9.16
2017-01-12T12:36:54.287Z,9.29
2017-01-12T12:37:53.309Z,9.1
2017-01-12T12:38:53.703Z,9.17
2017-01-12T12:39:53.896Z,9.32
2017-01-12T12:40:54.560Z,9.32
2017-01-12T12:41:54.390Z,9.27
2017-01-12T12:42:54.530Z,9.4
2017-01-12T12:43:54.145Z,9.38
2017-01-12T12:44:53.672Z,9.22
2017-01-12T12:45:53.878Z,9.43
2017-01-12T12:46:54.292Z,9.45
2017-01-12T12:47:54.421Z,9.45
2017-01-12T12:48:53.712Z,9.42
2017-01-12T12:49:54.221Z,9.43
2017-01-12T12:50:54.383Z,9
2017-01-12T12:51:54.048Z,9.05
2017-01-12T12:52:53.592Z,8.66
2017-01-12T12:53:53.959Z,8.87
2017-01-12T12:54:54.257Z,8.67
2017-01-12T12:55:53.582Z,8.76
2017-01-12T12:56:54.104Z,8.88
2017-01-12T12:57:53.607Z,8.94
2017-01-12T12:58:52.904Z,9.11
2017-01-12T12:59:52.766Z,9.28
2017-01-12T13:00:54.151Z,9.03
2017-01-12T13:01:53.970Z,8.62
2017-01-12T13:02:54.122Z,8.61
2017-01-12T13:03:53.423Z,8.88
2017-01-12T13:04:53.911Z,9.11
2017-01-12T13:05:53.951Z,9.06
2017-01-12T13:06:52.710Z,9.11
2017-01-12T13:07:53.343Z,8.72
2017-01-12T13:08:53.643Z,8.67
2017-01-12T13:09:52.568Z,8.58
2017-01-12T13:10:53.269Z,8.52
2017-01-12T13:11:53.939Z,8.65
2017-01-12T13:12:53.151Z,8.45
2017-01-12T13:13:53.878Z,8.3
2017-01-12T13:14:52.891Z,8.36
2017-01-12T13:15:52.509Z,8.57
2017-01-12T13:16:53.801Z,8.67
2017-01-12T13:17:53.049Z,8.62
2017-01-12T13:18:53.763Z,8.45
2017-01-12T13:19:53.116Z,8.42
2017-01-12T13:20:52.259Z,8.5